Impacts METAR Board
IDs:

KBWI - Baltimore-Washington, MD, US

Updated at: 1300 UTC 27 Feb 2021
Potential Impact None Slight Moderate High
Time 27/01Z 27/02Z 27/03Z 27/04Z 27/05Z 27/06Z 27/07Z 27/08Z 27/09Z 27/10Z 27/11Z 27/12Z 27/13Z
Temp42 38 38 37 37 37 37 37 37 38 38 38 39
Dewpt31 33 34 33 34 34 34 35 35 35 35 36 37
Altim30.43 30.42 30.41 30.39 30.37 30.33 30.31 30.27 30.23 30.19 30.17 30.14 30.12
VIS8 8 7 6 5 4 4 4 3 2.5 2 1.75 2
CIG55 34 26 12 7 6 6 5 5 4 4 4 5
CoverOVCOVCOVCOVCOVCOVCOVCOVCOVCOVCOVCOVCOVC
FltCatVFRVFRMVFRMVFRIFRIFRIFRIFRIFRLIFRLIFRLIFRIFR
WX-RA-RA-RA-RA BR-RA BR-RA BR-RA BR-RA BR-RA BR-RA BR-RA BR-DZ BR-DZ BR
WDir18014014008080607040401020110
WSpd7 5 3 5 6 7 7 7 4 8 5 6 3
WGst-- -- -- -- -- -- -- -- -- -- -- -- --
Raw hourly METARs
KBWI 270054Z 18007KT 140V210 8SM -RA SCT029 BKN055 OVC070 06/M01 A3043 RMK AO2 RAB53 SLP306 P0000 T00561006
KBWI 270154Z 14005KT 8SM -RA SCT027 BKN034 OVC055 03/01 A3042 RMK AO2 SLP300 P0002 T00330006
KBWI 270254Z 14003KT 7SM -RA SCT014 BKN026 OVC034 03/01 A3041 RMK AO2 SLP298 P0002 60004 T00330011 58003
KBWI 270354Z VRB05KT 6SM -RA BR SCT009 OVC012 03/01 A3039 RMK AO2 SLP292 P0004 T00280006
KBWI 270454Z 08006KT 5SM -RA BR BKN007 OVC012 03/01 A3037 RMK AO2 SLP283 P0004 T00280011 400940000
KBWI 270554Z 08007KT 4SM -RA BR BKN006 OVC033 03/01 A3033 RMK AO2 SLP270 P0003 60015 I1000 I6000 T00280011 10078 20022 58027
KBWI 270654Z 06007KT 4SM -RA BR OVC006 03/01 A3031 RMK AO2 SLP264 P0004 T00280011 $
KBWI 270754Z 07007KT 4SM -RA BR BKN005 OVC011 03/02 A3027 RMK AO2 CIG 004V008 SLP250 P0003 T00280017 $
KBWI 270854Z 04004KT 3SM -RA BR OVC005 03/02 A3023 RMK AO2 SLP237 P0002 60009 T00280017 $
KBWI 270954Z 04008KT 2 1/2SM -RA BR OVC004 03/02 A3019 RMK AO2 PRESFR SLP224 P0003 T00330017 $
KBWI 271054Z 01005KT 2SM -RA BR OVC004 03/02 A3017 RMK AO2 SLP216 P0003 T00330017 $
KBWI 271154Z 02006KT 1 3/4SM -DZ BR OVC004 03/02 A3014 RMK AO2 RAE54DZB54 SLP207 P0002 60017 70032 T00330022 10033 20028 56030 $
KBWI 271254Z 11003KT 2SM -DZ BR OVC005 04/03 A3012 RMK AO2 PRESFR SLP199 P0000 T00390028 $



Page loaded:  13:20 UTC  |   05:20 AM Pacific  |   06:20 AM Mountain  |   07:20 AM Central  |   08:20 AM Eastern

 

ADVISORIES

FORECASTS

FORECASTS

OBSERVATIONS

USER TOOLS

ABOUT US